createdAt,value
2022-10-08T00:00:58.335Z,4.55
2022-10-08T00:03:27.991Z,3.42
2022-10-08T00:05:57.045Z,3.47
2022-10-08T00:08:24.352Z,3.88
2022-10-08T00:10:56.676Z,3.60
2022-10-08T00:13:24.862Z,4.88
2022-10-08T00:15:53.182Z,3.72
2022-10-08T00:18:20.725Z,4.78
2022-10-08T00:20:47.808Z,3.38
2022-10-08T00:23:14.806Z,3.88
2022-10-08T00:25:43.371Z,3.90
2022-10-08T00:28:11.231Z,2.83
2022-10-08T00:30:39.937Z,3.30
2022-10-08T00:33:08.329Z,3.33
2022-10-08T00:35:39.681Z,4.07
2022-10-08T00:38:07.540Z,4.32
2022-10-08T00:40:44.122Z,4.25
2022-10-08T00:43:16.482Z,4.18
2022-10-08T00:45:46.205Z,4.55
2022-10-08T00:48:25.712Z,4.63
2022-10-08T00:50:52.659Z,4.50
2022-10-08T00:53:19.727Z,5.18
2022-10-08T00:55:46.416Z,4.85
2022-10-08T00:58:18.919Z,4.68
2022-10-08T01:00:46.005Z,5.05
2022-10-08T01:03:12.873Z,4.85
2022-10-08T01:06:00.492Z,4.63
2022-10-08T01:08:54.600Z,4.53
2022-10-08T01:11:30.110Z,3.65
2022-10-08T01:14:04.496Z,4.03
2022-10-08T01:16:58.265Z,3.63
2022-10-08T01:19:52.555Z,4.18
2022-10-08T01:22:41.255Z,3.63
2022-10-08T01:25:33.433Z,3.78
2022-10-08T01:28:03.588Z,3.70
2022-10-08T01:30:33.933Z,3.05
2022-10-08T01:33:06.511Z,3.33
2022-10-08T01:35:37.750Z,4.20
2022-10-08T01:38:07.108Z,3.28
2022-10-08T01:40:39.267Z,3.63
2022-10-08T01:43:10.304Z,4.15
2022-10-08T01:45:41.091Z,4.05
2022-10-08T01:48:16.525Z,3.70
2022-10-08T01:51:08.952Z,3.17
2022-10-08T01:53:40.393Z,3.80
2022-10-08T01:56:10.450Z,3.90
2022-10-08T01:58:58.099Z,3.20
2022-10-08T02:01:43.961Z,3.78
2022-10-08T02:04:29.323Z,3.53
2022-10-08T02:06:57.741Z,3.15
2022-10-08T02:09:27.155Z,3.78
2022-10-08T02:11:54.177Z,2.70
2022-10-08T02:14:25.807Z,3.00
2022-10-08T02:17:10.668Z,3.80
2022-10-08T02:19:56.495Z,3.47
2022-10-08T02:22:51.423Z,3.22
2022-10-08T02:25:27.564Z,3.33
2022-10-08T02:28:07.852Z,3.28
2022-10-08T02:30:50.561Z,3.10
2022-10-08T02:33:28.751Z,3.58
2022-10-08T02:35:58.815Z,3.50
2022-10-08T02:38:32.346Z,3.05
2022-10-08T02:41:02.753Z,2.80
2022-10-08T02:43:33.265Z,2.50
2022-10-08T02:46:06.591Z,2.38
2022-10-08T02:48:36.260Z,3.15
2022-10-08T02:51:11.703Z,3.65
2022-10-08T02:53:40.394Z,2.75
2022-10-08T02:56:32.061Z,2.75
2022-10-08T02:58:58.836Z,2.38
2022-10-08T03:01:36.964Z,2.35
2022-10-08T03:04:14.575Z,3.20
2022-10-08T03:06:41.717Z,2.38
2022-10-08T03:09:11.835Z,2.63
2022-10-08T03:11:39.081Z,2.97
2022-10-08T03:14:09.234Z,2.17
2022-10-08T03:16:41.533Z,2.47
2022-10-08T03:19:10.369Z,2.42
2022-10-08T03:21:39.480Z,2.28
2022-10-08T03:24:07.988Z,2.53
2022-10-08T03:26:35.019Z,2.35
2022-10-08T03:29:02.173Z,2.05
2022-10-08T03:31:28.876Z,2.30
2022-10-08T03:33:56.119Z,2.30
2022-10-08T03:36:24.496Z,2.88
2022-10-08T03:38:51.601Z,2.70
2022-10-08T03:41:18.909Z,2.50
2022-10-08T03:43:46.739Z,2.55
2022-10-08T03:46:15.219Z,2.63
2022-10-08T03:48:42.712Z,2.83
2022-10-08T03:51:13.008Z,3.05
2022-10-08T03:53:41.229Z,3.25
2022-10-08T03:56:11.316Z,2.70
2022-10-08T03:58:38.100Z,2.85
2022-10-08T04:01:08.087Z,3.45
2022-10-08T04:03:35.525Z,3.03
2022-10-08T04:06:02.303Z,3.72
2022-10-08T04:08:29.263Z,2.92
2022-10-08T04:10:56.340Z,3.83
2022-10-08T04:13:23.435Z,3.00
2022-10-08T04:15:53.280Z,3.35
2022-10-08T04:18:20.041Z,3.80
2022-10-08T04:20:46.715Z,3.55
2022-10-08T04:23:13.449Z,3.70
2022-10-08T04:25:49.752Z,3.60
2022-10-08T04:28:16.581Z,3.78
2022-10-08T04:30:43.357Z,3.45
2022-10-08T04:33:10.039Z,3.70
2022-10-08T04:35:39.746Z,4.43
2022-10-08T04:38:06.360Z,3.95
2022-10-08T04:43:14.317Z,3.65
2022-10-08T04:45:46.801Z,3.53
2022-10-08T04:50:40.393Z,3.45
2022-10-08T04:53:07.146Z,4.10
2022-10-08T04:55:34.234Z,3.13
2022-10-08T04:58:01.372Z,3.47
2022-10-08T05:00:28.110Z,3.45
2022-10-08T05:02:54.906Z,3.25
2022-10-08T05:05:21.781Z,3.80
2022-10-08T05:07:48.456Z,2.67
2022-10-08T05:10:15.106Z,3.25
2022-10-08T05:12:41.704Z,2.95
2022-10-08T05:15:09.112Z,2.97
2022-10-08T05:17:35.809Z,2.88
2022-10-08T05:20:02.575Z,2.83
2022-10-08T05:22:29.316Z,2.40
2022-10-08T05:24:55.983Z,2.80
2022-10-08T05:27:22.721Z,2.85
2022-10-08T05:29:49.418Z,2.42
2022-10-08T05:32:16.075Z,2.50
2022-10-08T05:34:42.696Z,2.90
2022-10-08T05:37:10.406Z,3.10
2022-10-08T05:39:37.055Z,2.35
2022-10-08T05:42:03.836Z,2.90
2022-10-08T05:44:32.850Z,2.40
2022-10-08T05:47:02.871Z,2.50
2022-10-08T05:49:29.517Z,2.50
2022-10-08T05:51:56.183Z,2.08
2022-10-08T05:54:22.874Z,2.72
2022-10-08T05:56:49.547Z,2.50
2022-10-08T05:59:19.314Z,2.60
2022-10-08T06:01:46.154Z,2.10
2022-10-08T06:04:12.997Z,2.47
2022-10-08T06:06:41.648Z,2.63
2022-10-08T06:09:10.429Z,2.05
2022-10-08T06:11:37.714Z,2.17
2022-10-08T06:14:07.056Z,2.20
2022-10-08T06:16:35.139Z,2.33
2022-10-08T06:19:03.210Z,2.03
2022-10-08T06:21:31.009Z,2.17
2022-10-08T06:24:00.483Z,2.30
2022-10-08T06:26:35.200Z,2.25
2022-10-08T06:29:05.530Z,2.15
2022-10-08T06:31:33.703Z,2.72
2022-10-08T06:34:00.628Z,2.60
2022-10-08T06:36:28.755Z,2.75
2022-10-08T06:38:59.976Z,2.22
2022-10-08T06:41:30.199Z,3.67
2022-10-08T06:43:56.951Z,2.63
2022-10-08T06:46:23.816Z,2.85
2022-10-08T06:48:50.541Z,2.42
2022-10-08T06:51:18.737Z,2.63
2022-10-08T06:53:51.358Z,2.70
2022-10-08T06:56:18.151Z,2.08
2022-10-08T06:58:45.915Z,2.65
2022-10-08T07:01:18.584Z,2.80
2022-10-08T07:03:53.009Z,2.63
2022-10-08T07:06:19.749Z,2.60
2022-10-08T07:08:46.489Z,3.28
2022-10-08T07:11:18.523Z,2.70
2022-10-08T07:13:45.691Z,2.42
2022-10-08T07:16:20.977Z,2.22
2022-10-08T07:18:49.652Z,2.55
2022-10-08T07:21:17.941Z,2.60
2022-10-08T07:23:45.068Z,2.60
2022-10-08T07:26:17.136Z,2.38
2022-10-08T07:28:48.885Z,2.58
2022-10-08T07:31:19.252Z,2.55
2022-10-08T07:33:46.161Z,2.03
2022-10-08T07:36:18.087Z,2.33
2022-10-08T07:38:44.849Z,2.13
2022-10-08T07:41:12.794Z,2.40
2022-10-08T07:43:43.215Z,2.30
2022-10-08T07:46:12.054Z,2.25
2022-10-08T07:48:39.665Z,2.17
2022-10-08T07:51:10.650Z,2.30
2022-10-08T07:53:38.167Z,2.55
2022-10-08T07:56:06.143Z,2.40
2022-10-08T07:58:33.514Z,2.50
2022-10-08T08:01:03.444Z,2.30
2022-10-08T08:03:30.371Z,2.13
2022-10-08T08:06:12.066Z,2.22
2022-10-08T08:08:40.278Z,2.03
2022-10-08T08:11:09.296Z,2.58
2022-10-08T08:13:38.115Z,2.20
2022-10-08T08:16:11.345Z,2.50
2022-10-08T08:18:40.433Z,2.42
2022-10-08T08:21:13.032Z,3.00
2022-10-08T08:23:45.293Z,3.38
2022-10-08T08:26:15.316Z,3.20
2022-10-08T08:28:42.502Z,2.65
2022-10-08T08:31:23.328Z,2.58
2022-10-08T08:33:52.552Z,4.22
2022-10-08T08:36:20.555Z,2.53
2022-10-08T08:38:47.296Z,2.55
2022-10-08T08:41:49.544Z,2.75
2022-10-08T08:44:25.385Z,3.85
2022-10-08T08:47:07.462Z,3.33
2022-10-08T08:49:41.931Z,3.88
2022-10-08T08:52:11.290Z,3.08
2022-10-08T08:54:38.122Z,3.33
2022-10-08T08:57:20.772Z,3.22
2022-10-08T08:59:49.285Z,3.20
2022-10-08T09:02:25.455Z,4.07
2022-10-08T09:05:07.199Z,3.05
2022-10-08T09:07:51.569Z,3.22
2022-10-08T09:10:22.719Z,2.80
2022-10-08T09:12:52.352Z,3.38
2022-10-08T09:15:26.804Z,3.15
2022-10-08T09:17:53.722Z,3.35
2022-10-08T09:20:24.174Z,2.92
2022-10-08T09:22:52.079Z,3.15
2022-10-08T09:25:28.180Z,2.72
2022-10-08T09:28:04.122Z,3.20
2022-10-08T09:30:35.824Z,3.17
2022-10-08T09:33:25.427Z,3.60
2022-10-08T09:35:54.012Z,3.83
2022-10-08T09:38:30.102Z,3.42
2022-10-08T09:41:01.071Z,2.20
2022-10-08T09:43:28.065Z,2.83
2022-10-08T09:45:54.976Z,2.80
2022-10-08T09:48:21.660Z,2.65
2022-10-08T09:51:04.100Z,2.90
2022-10-08T09:53:45.305Z,2.95
2022-10-08T09:56:13.505Z,2.58
2022-10-08T09:59:01.836Z,2.63
2022-10-08T10:01:31.416Z,2.40
2022-10-08T10:04:01.940Z,2.70
2022-10-08T10:06:34.062Z,3.35
2022-10-08T10:09:53.326Z,3.05
2022-10-08T10:12:32.544Z,1.85
2022-10-08T10:15:11.511Z,1.17
2022-10-08T10:17:59.216Z,1.83
2022-10-08T10:20:46.916Z,1.90
2022-10-08T10:23:33.904Z,1.98
2022-10-08T10:26:17.787Z,1.90
2022-10-08T10:29:02.861Z,1.70
2022-10-08T10:31:40.140Z,1.90
2022-10-08T10:34:18.248Z,1.52
2022-10-08T10:36:52.709Z,1.30
2022-10-08T10:39:31.308Z,1.65
2022-10-08T10:44:31.353Z,1.63
2022-10-08T10:47:00.077Z,2.00
2022-10-08T10:49:32.581Z,1.80
2022-10-08T10:52:37.403Z,1.90
2022-10-08T10:55:18.709Z,2.47
2022-10-08T10:58:12.828Z,1.92
2022-10-08T11:01:23.346Z,2.50
2022-10-08T11:04:19.096Z,1.60
2022-10-08T11:06:59.594Z,1.77
2022-10-08T11:09:33.017Z,1.80
2022-10-08T11:11:59.626Z,1.83
2022-10-08T11:14:50.916Z,1.60
2022-10-08T11:17:33.919Z,1.30
2022-10-08T11:20:21.672Z,1.67
2022-10-08T11:23:15.490Z,1.55
2022-10-08T11:26:22.913Z,1.65
2022-10-08T11:29:23.109Z,1.83
2022-10-08T11:31:51.635Z,1.65
2022-10-08T11:34:30.036Z,1.80
2022-10-08T11:37:23.650Z,1.75
2022-10-08T11:40:06.936Z,1.52
2022-10-08T11:43:06.401Z,2.00
2022-10-08T11:45:40.015Z,1.65
2022-10-08T11:48:30.745Z,2.15
2022-10-08T11:51:19.300Z,1.63
2022-10-08T11:54:28.335Z,1.70
2022-10-08T11:57:25.042Z,2.17
2022-10-08T12:00:22.289Z,2.00
2022-10-08T12:02:53.240Z,2.00
2022-10-08T12:05:49.311Z,1.60
2022-10-08T12:08:47.432Z,1.67
2022-10-08T12:11:39.906Z,1.40
2022-10-08T12:14:15.296Z,1.50
2022-10-08T12:16:47.628Z,1.58
2022-10-08T12:19:33.737Z,1.80
2022-10-08T12:22:16.697Z,1.25
2022-10-08T12:24:50.173Z,1.60
2022-10-08T12:27:17.407Z,1.35
2022-10-08T12:30:12.665Z,1.20
2022-10-08T12:32:42.125Z,1.40
2022-10-08T12:35:25.431Z,1.38
2022-10-08T12:38:10.304Z,1.60
2022-10-08T12:43:27.723Z,1.65
2022-10-08T12:46:18.135Z,1.20
2022-10-08T12:48:51.485Z,1.20
2022-10-08T12:51:32.840Z,1.05
2022-10-08T12:53:59.631Z,1.45
2022-10-08T12:56:28.440Z,1.48
2022-10-08T12:58:58.716Z,1.90
2022-10-08T13:01:26.135Z,1.85
2022-10-08T13:04:20.550Z,1.50
2022-10-08T13:06:49.206Z,1.25
2022-10-08T13:09:30.709Z,1.42
2022-10-08T13:12:03.439Z,1.83
2022-10-08T13:14:36.387Z,1.70
2022-10-08T13:17:03.846Z,1.85
2022-10-08T13:19:36.257Z,1.60
2022-10-08T13:22:26.139Z,1.80
2022-10-08T13:24:53.104Z,1.95
2022-10-08T13:27:24.102Z,1.63
2022-10-08T13:29:51.131Z,1.73
2022-10-08T13:32:28.244Z,1.90
2022-10-08T13:34:59.966Z,1.90
2022-10-08T13:37:38.228Z,2.05
2022-10-08T13:40:18.636Z,2.10
2022-10-08T13:42:49.403Z,1.90
2022-10-08T13:45:24.963Z,1.90
2022-10-08T13:47:52.572Z,2.30
2022-10-08T13:50:20.516Z,2.28
2022-10-08T13:52:53.729Z,2.03
2022-10-08T13:55:29.331Z,2.25
2022-10-08T13:57:57.264Z,1.98
2022-10-08T14:00:24.526Z,2.42
2022-10-08T14:02:52.071Z,1.88
2022-10-08T14:05:22.666Z,2.00
2022-10-08T14:07:52.958Z,2.08
2022-10-08T14:10:20.031Z,1.90
2022-10-08T14:12:46.862Z,2.08
2022-10-08T14:15:15.553Z,2.35
2022-10-08T14:17:42.502Z,2.03
2022-10-08T14:20:10.617Z,2.00
2022-10-08T14:22:40.382Z,2.33
2022-10-08T14:25:19.704Z,1.85
2022-10-08T14:27:46.812Z,1.95
2022-10-08T14:30:14.871Z,2.00
2022-10-08T14:32:42.238Z,2.00
2022-10-08T14:35:10.147Z,1.85
2022-10-08T14:37:37.192Z,1.98
2022-10-08T14:40:06.519Z,1.88
2022-10-08T14:42:33.300Z,2.25
2022-10-08T14:45:00.012Z,1.70
2022-10-08T14:47:26.696Z,2.00
2022-10-08T14:49:53.380Z,2.20
2022-10-08T14:52:20.624Z,2.10
2022-10-08T14:54:47.305Z,1.90
2022-10-08T14:57:14.711Z,1.85
2022-10-08T14:59:42.541Z,1.83
2022-10-08T15:02:12.886Z,1.55
2022-10-08T15:04:39.888Z,1.85
2022-10-08T15:07:06.769Z,2.40
2022-10-08T15:09:34.695Z,1.60
2022-10-08T15:12:01.347Z,1.33
2022-10-08T15:14:28.094Z,1.77
2022-10-08T15:16:54.884Z,1.45
2022-10-08T15:19:23.997Z,1.90
2022-10-08T15:21:51.186Z,1.48
2022-10-08T15:24:18.148Z,1.45
2022-10-08T15:26:45.100Z,1.25
2022-10-08T15:29:11.933Z,1.10
2022-10-08T15:31:38.921Z,1.15
2022-10-08T15:34:05.845Z,1.15
2022-10-08T15:36:37.598Z,1.00
2022-10-08T15:39:13.356Z,1.30
2022-10-08T15:41:42.667Z,1.25
2022-10-08T15:44:17.594Z,1.08
2022-10-08T15:46:48.801Z,0.85
2022-10-08T15:49:16.458Z,1.85
2022-10-08T15:51:43.168Z,1.23
2022-10-08T15:54:09.848Z,1.17
2022-10-08T15:56:36.683Z,1.05
2022-10-08T15:59:04.674Z,1.27
2022-10-08T16:01:32.253Z,1.55
2022-10-08T16:04:00.116Z,0.95
2022-10-08T16:06:35.178Z,0.98
2022-10-08T16:09:03.492Z,1.17
2022-10-08T16:11:33.475Z,1.33
2022-10-08T16:14:02.585Z,0.82
2022-10-08T16:16:29.703Z,1.13
2022-10-08T16:19:01.783Z,1.00
2022-10-08T16:21:30.437Z,1.20
2022-10-08T16:23:58.067Z,1.40
2022-10-08T16:26:25.771Z,1.40
2022-10-08T16:28:57.071Z,1.33
2022-10-08T16:31:25.576Z,1.13
2022-10-08T16:34:00.465Z,1.25
2022-10-08T16:36:29.809Z,1.30
2022-10-08T16:38:57.701Z,1.85
2022-10-08T16:41:26.904Z,1.70
2022-10-08T16:43:55.735Z,2.10
2022-10-08T16:46:24.285Z,2.00
2022-10-08T16:48:53.116Z,2.35
2022-10-08T16:51:20.528Z,2.63
2022-10-08T16:53:51.992Z,2.55
2022-10-08T16:56:20.843Z,2.35
2022-10-08T16:58:58.674Z,2.38
2022-10-08T17:01:25.926Z,2.28
2022-10-08T17:03:53.848Z,3.05
2022-10-08T17:06:23.052Z,2.58
2022-10-08T17:08:50.687Z,2.63
2022-10-08T17:11:18.134Z,2.80
2022-10-08T17:13:50.682Z,2.30
2022-10-08T17:16:19.358Z,1.98
2022-10-08T17:18:46.572Z,2.00
2022-10-08T17:21:14.413Z,2.10
2022-10-08T17:23:41.175Z,1.80
2022-10-08T17:26:11.557Z,1.80
2022-10-08T17:28:40.903Z,1.58
2022-10-08T17:31:09.372Z,1.77
2022-10-08T17:33:36.560Z,1.90
2022-10-08T17:36:34.127Z,1.35
2022-10-08T17:41:34.169Z,1.23
2022-10-08T17:44:02.906Z,1.13
2022-10-08T17:46:35.547Z,1.25
2022-10-08T17:49:03.260Z,2.13
2022-10-08T17:51:31.285Z,0.90
2022-10-08T17:54:03.608Z,1.20
2022-10-08T17:58:58.115Z,0.88
2022-10-08T18:01:27.363Z,1.00
2022-10-08T18:03:58.551Z,1.00
2022-10-08T18:06:26.749Z,0.90
2022-10-08T18:08:58.896Z,1.40
2022-10-08T18:11:26.924Z,1.60
2022-10-08T18:13:53.798Z,2.05
2022-10-08T18:16:22.026Z,1.60
2022-10-08T18:18:49.299Z,1.35
2022-10-08T18:21:18.293Z,1.65
2022-10-08T18:23:49.266Z,2.25
2022-10-08T18:26:17.389Z,2.10
2022-10-08T18:28:45.171Z,2.20
2022-10-08T18:31:13.449Z,1.70
2022-10-08T18:33:43.075Z,2.13
2022-10-08T18:36:15.800Z,1.70
2022-10-08T18:38:44.113Z,1.85
2022-10-08T18:41:31.168Z,1.70
2022-10-08T18:43:59.647Z,1.60
2022-10-08T18:46:27.348Z,1.90
2022-10-08T18:48:55.138Z,2.03
2022-10-08T18:51:24.369Z,2.33
2022-10-08T18:53:52.994Z,2.00
2022-10-08T18:56:24.475Z,1.70
2022-10-08T18:58:53.251Z,1.75
2022-10-08T19:01:22.749Z,2.50
2022-10-08T19:03:51.644Z,3.63
2022-10-08T19:06:20.288Z,2.67
2022-10-08T19:08:47.212Z,3.13
2022-10-08T19:11:16.544Z,3.25
2022-10-08T19:13:44.526Z,3.83
2022-10-08T19:16:15.422Z,2.67
2022-10-08T19:19:02.380Z,3.17
2022-10-08T19:21:32.050Z,3.00
2022-10-08T19:24:00.888Z,2.97
2022-10-08T19:26:30.755Z,3.47
2022-10-08T19:28:58.456Z,3.78
2022-10-08T19:31:31.549Z,4.75
2022-10-08T19:34:01.012Z,4.50
2022-10-08T19:36:32.331Z,6.35
2022-10-08T19:39:01.627Z,7.03
2022-10-08T19:41:29.475Z,5.47
2022-10-08T19:43:57.411Z,6.28
2022-10-08T19:46:26.194Z,6.40
2022-10-08T19:48:56.259Z,5.22
2022-10-08T19:51:24.181Z,5.70
2022-10-08T19:53:51.300Z,5.25
2022-10-08T19:56:18.859Z,5.43
2022-10-08T19:58:48.825Z,4.07
2022-10-08T20:01:22.427Z,5.55
2022-10-08T20:03:51.815Z,4.82
2022-10-08T20:06:24.327Z,5.10
2022-10-08T20:08:56.468Z,4.88
2022-10-08T20:11:23.784Z,5.47
2022-10-08T20:13:52.504Z,4.78
2022-10-08T20:16:25.181Z,5.75
2022-10-08T20:18:58.832Z,5.72
2022-10-08T20:21:27.562Z,5.32
2022-10-08T20:23:54.412Z,5.20
2022-10-08T20:26:29.291Z,5.22
2022-10-08T20:29:03.606Z,6.22
2022-10-08T20:31:33.502Z,6.15
2022-10-08T20:34:23.653Z,7.10
2022-10-08T20:36:50.927Z,6.57
2022-10-08T20:39:19.126Z,6.80
2022-10-08T20:41:46.342Z,7.00
2022-10-08T20:44:13.903Z,5.93
2022-10-08T20:46:40.769Z,8.05
2022-10-08T20:49:07.754Z,8.25
2022-10-08T20:51:34.960Z,8.80
2022-10-08T20:54:05.173Z,9.32
2022-10-08T20:56:39.243Z,8.48
2022-10-08T20:59:08.234Z,8.77
2022-10-08T21:01:38.092Z,8.82
2022-10-08T21:04:06.149Z,8.23
2022-10-08T21:06:41.370Z,8.10
2022-10-08T21:09:08.286Z,7.07
2022-10-08T21:11:35.824Z,7.35
2022-10-08T21:14:03.638Z,7.78
2022-10-08T21:16:36.609Z,6.38
2022-10-08T21:19:06.515Z,6.28
2022-10-08T21:21:34.323Z,7.35
2022-10-08T21:24:00.981Z,6.47
2022-10-08T21:26:32.807Z,6.60
2022-10-08T21:29:01.869Z,6.95
2022-10-08T21:31:30.744Z,6.25
2022-10-08T21:33:58.268Z,5.78
2022-10-08T21:36:27.979Z,5.32
2022-10-08T21:38:55.350Z,5.60
2022-10-08T21:41:24.057Z,5.75
2022-10-08T21:43:53.232Z,5.50
2022-10-08T21:46:23.158Z,5.00
2022-10-08T21:48:57.897Z,5.13
2022-10-08T21:51:25.558Z,5.18
2022-10-08T21:53:54.754Z,5.30
2022-10-08T21:56:23.934Z,4.53
2022-10-08T21:58:55.391Z,4.07
2022-10-08T22:01:24.275Z,4.55
2022-10-08T22:03:55.461Z,4.80
2022-10-08T22:06:22.803Z,4.20
2022-10-08T22:08:50.207Z,5.25
2022-10-08T22:11:17.545Z,4.75
2022-10-08T22:13:44.304Z,4.30
2022-10-08T22:16:13.254Z,5.05
2022-10-08T22:18:40.344Z,4.18
2022-10-08T22:21:11.223Z,5.13
2022-10-08T22:23:38.127Z,5.30
2022-10-08T22:26:10.737Z,4.72
2022-10-08T22:28:37.860Z,4.72
2022-10-08T22:31:09.116Z,4.50
2022-10-08T22:33:35.904Z,4.25
2022-10-08T22:36:07.508Z,4.18
2022-10-08T22:38:36.535Z,5.18
2022-10-08T22:41:13.300Z,5.25
2022-10-08T22:43:41.660Z,4.90
2022-10-08T22:46:20.292Z,4.55
2022-10-08T22:48:47.500Z,4.88
2022-10-08T22:51:18.197Z,4.93
2022-10-08T22:53:45.870Z,4.60
2022-10-08T22:56:15.504Z,5.32
2022-10-08T22:58:43.100Z,4.32
2022-10-08T23:01:13.240Z,4.45
2022-10-08T23:03:40.283Z,5.30
2022-10-08T23:06:06.983Z,4.97
2022-10-08T23:08:35.306Z,5.75
2022-10-08T23:11:02.796Z,4.70
2022-10-08T23:13:30.428Z,5.13
2022-10-08T23:16:02.639Z,4.07
2022-10-08T23:18:33.880Z,4.65
2022-10-08T23:21:02.353Z,4.30
2022-10-08T23:23:29.129Z,4.55
2022-10-08T23:25:58.421Z,4.90
2022-10-08T23:28:25.354Z,4.80
2022-10-08T23:30:52.389Z,4.43
2022-10-08T23:33:20.006Z,3.95
2022-10-08T23:35:54.631Z,4.70
2022-10-08T23:38:22.675Z,4.18
2022-10-08T23:40:50.711Z,5.72
2022-10-08T23:43:17.621Z,4.07
2022-10-08T23:45:44.369Z,4.38
2022-10-08T23:48:11.072Z,4.63
2022-10-08T23:50:38.394Z,5.13
2022-10-08T23:53:05.087Z,4.82
2022-10-08T23:55:31.772Z,5.82
2022-10-08T23:57:58.431Z,6.07
